Terminal Aerodrome Forecast
Issued by NWS Portland, OR

Home | Current Version | Previous Version | Text Only | Print | Product List | Glossary On
Versions: 1 2 3 4 5 6 7 8 9 10 11 12 13 14 15 16 17 18 19 20 21 22 23 24 25 26 27 28 29 30 31 32 33 34 35 36 37 38 39 40 41 42 43 44 45 46 47 48 49 50
000
FTUS46 KPQR 011401 AAB
TAFAST
TAF AMD
KAST 011401Z 0114/0212 21008KT P6SM -SHRA SCT013 OVC035
      TEMPO 0114/0116 -RA BKN013 BKN025 OVC035
     FM011600 21012G20KT 4SM -SHRA BR BKN012 OVC021
      TEMPO 0116/0120 2SM RA BR
     FM012200 22008KT P6SM VCSH OVC025
     FM020300 22006KT P6SM SCT025 BKN150=

USA.gov is the U.S. government's official web portal to all federal, state and local government web resources and services.